Time;durP1;ratioP1;P1;durP2;ratioP2;P2;SDS_P1;SDS_P2;PMS_P1;PMS_P2;Temp;Humidity;BMP_temperature;BMP_pressure;BME280_temperature;BME280_humidity;BME280_pressure;Samples;Min_cycle;Max_cycle;Signal;HPM_P1;HPM_P2
2021/01/10 00:00:32;;;;;;;10.43;4.90;;;-3.40;99.90;;;;;;5042939;28;20078;-73
2021/01/10 00:02:57;;;;;;;10.93;4.20;;;-3.30;99.60;;;;;;5050417;28;20603;-72
2021/01/10 00:05:30;;;;;;;10.88;5.28;;;-3.20;99.20;;;;;;5046030;28;20033;-72
2021/01/10 00:07:56;;;;;;;7.20;4.27;;;-3.00;98.10;;;;;;5048044;28;20052;-73
2021/01/10 00:10:23;;;;;;;8.57;4.53;;;-3.00;97.10;;;;;;5049847;28;20545;-73
2021/01/10 00:12:49;;;;;;;10.53;5.53;;;-2.90;97.20;;;;;;5051255;28;20025;-72
2021/01/10 00:15:16;;;;;;;9.63;4.80;;;-2.90;96.90;;;;;;5056802;28;20051;-72
2021/01/10 00:17:44;;;;;;;9.63;4.60;;;-2.80;97.10;;;;;;5050488;28;20048;-73
2021/01/10 00:20:10;;;;;;;7.80;4.00;;;-2.90;99.40;;;;;;5050321;28;20025;-72
2021/01/10 00:22:36;;;;;;;8.37;4.10;;;-3.10;99.60;;;;;;5048705;28;20040;-73
2021/01/10 00:25:13;;;;;;;9.47;4.80;;;-3.00;99.50;;;;;;5055222;28;20074;-73
2021/01/10 00:27:40;;;;;;;9.40;4.77;;;-3.20;98.10;;;;;;5051942;28;20049;-73
2021/01/10 00:30:08;;;;;;;16.87;5.97;;;-3.00;97.30;;;;;;5030426;28;20484;-72
2021/01/10 00:32:34;;;;;;;11.43;4.50;;;-3.00;97.00;;;;;;5046958;28;20056;-72
2021/01/10 00:35:00;;;;;;;11.80;4.93;;;-3.00;96.80;;;;;;5051981;28;20479;-72
2021/01/10 00:37:26;;;;;;;11.00;5.43;;;-3.00;97.10;;;;;;5049166;28;20312;-72
2021/01/10 00:39:52;;;;;;;11.70;4.73;;;-3.00;97.90;;;;;;5049773;28;20044;-73
2021/01/10 00:42:18;;;;;;;13.53;5.77;;;-3.00;97.40;;;;;;5049598;28;20048;-74
2021/01/10 00:44:46;;;;;;;7.50;4.17;;;-2.90;97.50;;;;;;5049561;28;20059;-74
2021/01/10 00:47:12;;;;;;;12.73;4.93;;;-2.90;96.90;;;;;;5052986;28;20484;-74
2021/01/10 00:49:39;;;;;;;9.80;5.53;;;-2.90;96.70;;;;;;5047703;28;20029;-73
2021/01/10 00:52:05;;;;;;;12.53;5.20;;;-2.80;96.80;;;;;;5040909;28;20539;-74
2021/01/10 00:54:32;;;;;;;11.37;4.43;;;-2.90;96.90;;;;;;5043704;28;20036;-73
2021/01/10 00:56:58;;;;;;;9.93;5.30;;;-3.20;99.90;;;;;;5049119;28;20037;-73
2021/01/10 00:59:24;;;;;;;9.20;4.57;;;-3.10;99.90;;;;;;5049343;28;20503;-73
2021/01/10 01:01:50;;;;;;;11.63;4.97;;;-3.10;99.60;;;;;;5054952;28;20028;-73
2021/01/10 01:04:16;;;;;;;8.93;3.90;;;-3.10;98.60;;;;;;5048823;28;20106;-73
2021/01/10 01:06:42;;;;;;;9.97;4.20;;;-3.10;99.10;;;;;;5049953;28;20017;-73
2021/01/10 01:09:07;;;;;;;10.13;4.47;;;-3.00;98.80;;;;;;5046874;28;20403;-73
2021/01/10 01:11:35;;;;;;;17.23;6.60;;;-3.00;97.80;;;;;;5049802;28;20045;-73
2021/01/10 01:14:02;;;;;;;8.47;4.30;;;-2.80;99.10;;;;;;5049048;28;20052;-73
2021/01/10 01:16:28;;;;;;;11.60;4.30;;;-2.90;97.00;;;;;;5049182;28;20487;-73
2021/01/10 01:18:53;;;;;;;9.10;4.80;;;-2.80;96.40;;;;;;5049268;28;20036;-73
2021/01/10 01:21:20;;;;;;;7.30;4.27;;;-2.80;96.30;;;;;;5049118;28;20033;-73
2021/01/10 01:23:50;;;;;;;8.30;4.10;;;-2.80;96.40;;;;;;5049633;28;20037;-73
2021/01/10 01:26:19;;;;;;;9.00;4.23;;;-2.80;96.20;;;;;;5039783;28;20030;-73
2021/01/10 01:28:45;;;;;;;8.77;4.53;;;-2.80;96.30;;;;;;5039102;28;20372;-73
2021/01/10 01:31:12;;;;;;;9.70;4.43;;;-2.70;96.20;;;;;;5031979;28;20018;-73
2021/01/10 01:33:39;;;;;;;11.30;4.50;;;-2.80;96.00;;;;;;5050483;28;20468;-73
2021/01/10 01:36:09;;;;;;;8.40;4.00;;;-2.70;96.00;;;;;;5051559;28;20032;-73
2021/01/10 01:38:35;;;;;;;8.13;4.00;;;-2.80;95.90;;;;;;5053548;28;20132;-73
2021/01/10 01:41:01;;;;;;;9.83;4.13;;;-2.70;96.00;;;;;;5053568;28;20033;-73
2021/01/10 01:43:27;;;;;;;10.07;4.83;;;-2.70;96.00;;;;;;5044554;28;20017;-72
2021/01/10 01:45:53;;;;;;;7.90;3.90;;;-2.80;96.30;;;;;;5053208;28;20033;-73
2021/01/10 01:48:19;;;;;;;7.30;4.33;;;-2.80;96.00;;;;;;5052986;28;20124;-73
2021/01/10 01:50:45;;;;;;;6.30;3.33;;;-2.80;95.90;;;;;;5053013;28;20025;-73
2021/01/10 01:53:10;;;;;;;5.80;3.37;;;-2.70;95.70;;;;;;5053203;28;20035;-73
2021/01/10 01:55:36;;;;;;;10.47;4.30;;;-2.70;95.50;;;;;;5050786;28;20028;-73
2021/01/10 01:58:05;;;;;;;8.27;4.47;;;-2.60;95.90;;;;;;5034879;28;20060;-73
2021/01/10 02:00:32;;;;;;;7.87;3.63;;;-2.60;95.70;;;;;;5040199;28;20045;-73
2021/01/10 02:02:58;;;;;;;8.47;3.73;;;-2.50;95.20;;;;;;5038086;28;20056;-72
2021/01/10 02:05:27;;;;;;;8.53;3.97;;;-2.50;95.30;;;;;;5047379;28;20487;-72
2021/01/10 02:08:01;;;;;;;7.67;3.97;;;-2.60;95.50;;;;;;5051610;28;20361;-71
2021/01/10 02:10:31;;;;;;;9.57;4.28;;;-2.60;95.50;;;;;;5071357;28;20060;-72
2021/01/10 02:13:04;;;;;;;8.70;3.73;;;-2.70;95.50;;;;;;5061641;28;20039;-72
2021/01/10 02:15:33;;;;;;;9.00;4.03;;;-2.70;95.40;;;;;;5051920;28;20036;-73
2021/01/10 02:18:03;;;;;;;7.90;3.80;;;-2.80;95.50;;;;;;5043251;28;20384;-73
2021/01/10 02:20:34;;;;;;;9.23;4.63;;;-2.70;95.60;;;;;;5052134;28;20036;-73
2021/01/10 02:23:41;;;;;;;10.30;3.63;;;-2.70;95.30;;;;;;5051982;28;20021;-72
2021/01/10 02:26:08;;;;;;;9.40;3.60;;;-2.70;95.20;;;;;;5029868;28;20038;-73
2021/01/10 02:28:35;;;;;;;6.43;3.07;;;-2.70;95.40;;;;;;5051775;28;20051;-73
2021/01/10 02:31:02;;;;;;;7.20;4.13;;;-2.70;95.40;;;;;;5052485;28;20421;-72
2021/01/10 02:33:41;;;;;;;5.37;2.93;;;-2.70;95.20;;;;;;5049464;28;20108;-73
2021/01/10 02:36:25;;;;;;;8.40;3.93;;;-2.80;95.30;;;;;;5055686;28;20036;-73
2021/01/10 02:38:59;;;;;;;6.83;3.27;;;-2.80;95.10;;;;;;5054600;28;20394;-73
2021/01/10 02:41:49;;;;;;;6.95;3.20;;;-2.80;95.90;;;;;;5051699;28;20037;-73
2021/01/10 02:44:27;;;;;;;7.73;3.90;;;-2.80;95.30;;;;;;5052203;28;20021;-73
2021/01/10 02:46:54;;;;;;;10.03;3.13;;;-2.70;95.40;;;;;;5050327;28;20102;-72
2021/01/10 02:49:21;;;;;;;6.37;3.30;;;-2.70;95.10;;;;;;5054856;28;20037;-73
2021/01/10 02:51:48;;;;;;;6.50;3.30;;;-2.80;95.30;;;;;;5048083;28;20103;-73
2021/01/10 02:54:14;;;;;;;7.23;4.03;;;-2.80;95.30;;;;;;5038891;28;20572;-73
2021/01/10 02:56:47;;;;;;;8.00;3.70;;;-2.80;95.40;;;;;;5039643;28;20096;-73
2021/01/10 02:59:18;;;;;;;11.90;4.00;;;-2.70;95.40;;;;;;5052567;28;20467;-73
2021/01/10 03:01:45;;;;;;;12.10;3.83;;;-2.80;95.40;;;;;;5058976;28;20069;-73
2021/01/10 03:04:13;;;;;;;8.17;3.07;;;-2.70;95.30;;;;;;5065013;28;20518;-73
2021/01/10 03:06:39;;;;;;;6.83;3.57;;;-2.80;95.30;;;;;;5064051;28;20024;-73
2021/01/10 03:09:05;;;;;;;6.97;2.67;;;-2.80;95.50;;;;;;5049690;28;20103;-72
2021/01/10 03:11:32;;;;;;;7.83;3.77;;;-2.70;95.70;;;;;;5051663;28;20107;-73
2021/01/10 03:13:58;;;;;;;6.57;3.23;;;-2.60;95.20;;;;;;5064771;28;20466;-73
2021/01/10 03:16:24;;;;;;;8.10;3.60;;;-2.60;95.20;;;;;;5054833;28;20045;-73
2021/01/10 03:18:50;;;;;;;9.07;3.20;;;-2.70;95.50;;;;;;5050488;28;20112;-73
2021/01/10 03:21:16;;;;;;;5.17;3.00;;;-2.60;95.40;;;;;;5057446;28;20124;-73
2021/01/10 03:23:41;;;;;;;8.10;3.83;;;-2.60;95.20;;;;;;5060881;28;20540;-73
2021/01/10 03:26:07;;;;;;;7.73;3.80;;;-2.60;95.40;;;;;;5040175;28;20056;-73
2021/01/10 03:28:33;;;;;;;7.33;3.23;;;-2.50;96.60;;;;;;5051020;28;20045;-73
2021/01/10 03:30:58;;;;;;;10.97;3.17;;;-2.60;96.80;;;;;;5050431;28;20043;-71
2021/01/10 03:33:24;;;;;;;8.87;3.50;;;-2.60;96.90;;;;;;5051199;28;20029;-72
2021/01/10 03:35:50;;;;;;;5.40;2.83;;;-2.70;95.70;;;;;;5050675;28;20035;-73
2021/01/10 03:38:15;;;;;;;4.77;3.10;;;-2.60;95.80;;;;;;5050414;28;20032;-73
2021/01/10 03:40:41;;;;;;;7.20;3.20;;;-2.60;95.00;;;;;;5050099;28;20454;-73
2021/01/10 03:43:06;;;;;;;9.27;3.30;;;-2.60;94.80;;;;;;5049887;28;20560;-73
2021/01/10 03:45:32;;;;;;;5.70;3.17;;;-2.60;95.20;;;;;;5046338;28;20108;-73
2021/01/10 03:47:58;;;;;;;6.43;3.00;;;-2.70;94.90;;;;;;5032189;28;20116;-73
2021/01/10 03:50:23;;;;;;;8.90;3.63;;;-2.60;95.00;;;;;;5050613;28;20090;-73
2021/01/10 03:52:49;;;;;;;7.10;3.27;;;-2.70;94.70;;;;;;5049564;28;20083;-72
2021/01/10 03:55:14;;;;;;;7.33;3.23;;;-2.60;94.70;;;;;;5049949;28;20033;-72
2021/01/10 03:57:40;;;;;;;6.30;2.93;;;-2.70;94.50;;;;;;5050871;28;20022;-73
2021/01/10 04:00:08;;;;;;;7.10;2.93;;;-2.70;94.90;;;;;;5049428;28;20112;-72
2021/01/10 04:02:34;;;;;;;9.40;4.03;;;-2.70;94.50;;;;;;5046516;28;20467;-73
2021/01/10 04:05:00;;;;;;;7.17;3.03;;;-2.60;94.40;;;;;;5041633;28;20025;-73
2021/01/10 04:07:26;;;;;;;6.20;3.10;;;-2.60;94.50;;;;;;5043584;28;20029;-73
2021/01/10 04:09:51;;;;;;;7.83;3.77;;;-2.60;94.70;;;;;;5042738;28;20048;-73
2021/01/10 04:12:17;;;;;;;6.13;2.97;;;-2.80;94.70;;;;;;5042967;28;20025;-73
2021/01/10 04:14:43;;;;;;;4.87;2.43;;;-2.80;94.80;;;;;;5049253;28;20032;-73
2021/01/10 04:17:08;;;;;;;7.13;3.40;;;-2.80;95.00;;;;;;5026774;28;20033;-73
2021/01/10 04:19:34;;;;;;;5.10;2.83;;;-2.70;95.20;;;;;;5023543;28;20030;-73
2021/01/10 04:22:00;;;;;;;5.17;2.63;;;-2.70;94.70;;;;;;5042288;28;20079;-73
2021/01/10 04:24:25;;;;;;;5.77;2.77;;;-2.60;94.50;;;;;;5041896;28;20035;-73
2021/01/10 04:26:51;;;;;;;6.73;2.60;;;-2.60;94.20;;;;;;5042841;28;20635;-73
2021/01/10 04:29:21;;;;;;;6.67;3.20;;;-2.70;94.40;;;;;;5042742;28;20136;-73
2021/01/10 04:31:49;;;;;;;5.73;3.07;;;-2.80;94.40;;;;;;5041973;28;20087;-73
2021/01/10 04:34:14;;;;;;;5.33;2.90;;;-2.80;94.60;;;;;;5037566;28;20052;-73
2021/01/10 04:36:40;;;;;;;6.33;3.43;;;-2.70;94.90;;;;;;5042760;28;20072;-73
2021/01/10 04:39:06;;;;;;;7.30;3.20;;;-2.70;94.70;;;;;;5042460;28;20633;-73
2021/01/10 04:41:33;;;;;;;7.43;3.50;;;-2.70;94.40;;;;;;5037484;28;20045;-73
2021/01/10 04:44:00;;;;;;;4.77;2.97;;;-2.80;94.80;;;;;;5037947;28;20025;-73
2021/01/10 04:46:27;;;;;;;6.60;2.87;;;-2.80;96.20;;;;;;5042518;28;20090;-73
2021/01/10 04:48:55;;;;;;;6.77;3.00;;;-3.00;97.10;;;;;;5042569;28;20561;-73
2021/01/10 04:51:24;;;;;;;6.57;3.13;;;-3.10;97.30;;;;;;5031467;28;20582;-73
2021/01/10 04:53:50;;;;;;;5.97;3.07;;;-3.00;97.30;;;;;;5062875;28;20024;-73
2021/01/10 04:56:19;;;;;;;8.53;3.23;;;-3.00;97.60;;;;;;5041289;28;20036;-73
2021/01/10 04:58:52;;;;;;;6.50;3.10;;;-3.10;96.50;;;;;;5041918;28;20368;-73
2021/01/10 05:01:24;;;;;;;5.03;2.80;;;-2.90;96.10;;;;;;5041906;28;20364;-73
2021/01/10 05:03:54;;;;;;;7.47;3.47;;;-3.00;96.80;;;;;;5041665;28;20053;-73
2021/01/10 05:06:20;;;;;;;6.50;3.47;;;-2.90;96.70;;;;;;5039702;28;20520;-73
2021/01/10 05:08:47;;;;;;;6.70;3.20;;;-2.90;96.50;;;;;;5032917;28;20017;-73
2021/01/10 05:11:15;;;;;;;5.83;2.70;;;-2.90;96.80;;;;;;5045256;28;20024;-73
2021/01/10 05:13:41;;;;;;;7.17;3.27;;;-2.90;96.50;;;;;;5046002;28;20029;-73
2021/01/10 05:16:06;;;;;;;6.33;3.23;;;-2.80;96.20;;;;;;5045689;28;20025;-73
2021/01/10 05:18:32;;;;;;;5.77;3.17;;;-2.80;95.50;;;;;;5046021;28;20056;-73
2021/01/10 05:20:58;;;;;;;5.47;2.13;;;-2.80;95.50;;;;;;5045774;28;20040;-73
2021/01/10 05:23:25;;;;;;;5.07;2.30;;;-2.80;95.70;;;;;;5042741;28;20037;-73
2021/01/10 05:26:09;;;;;;;5.90;2.80;;;-2.80;97.10;;;;;;5039431;28;20102;-73
2021/01/10 05:28:35;;;;;;;5.80;2.73;;;-2.90;97.00;;;;;;5046201;28;20053;-73
2021/01/10 05:31:07;;;;;;;6.83;3.63;;;-2.80;97.50;;;;;;5045609;28;20040;-73
2021/01/10 05:33:47;;;;;;;5.90;2.63;;;-2.80;96.90;;;;;;5045961;28;20024;-74
2021/01/10 05:36:28;;;;;;;6.07;2.70;;;-2.80;97.50;;;;;;5046040;28;20032;-73
2021/01/10 05:38:54;;;;;;;7.70;3.07;;;-2.70;96.30;;;;;;5026316;28;20447;-74
2021/01/10 05:41:21;;;;;;;7.17;2.90;;;-2.70;97.60;;;;;;5038728;28;20057;-73
2021/01/10 05:44:00;;;;;;;7.90;2.80;;;-2.90;97.30;;;;;;5033253;28;20839;-73
2021/01/10 05:46:28;;;;;;;8.97;3.33;;;-2.80;97.50;;;;;;5048661;28;20071;-73
2021/01/10 05:48:54;;;;;;;5.77;2.83;;;-3.00;97.60;;;;;;5047141;28;20033;-73
2021/01/10 05:51:24;;;;;;;5.83;2.90;;;-2.90;99.00;;;;;;5045476;28;20473;-73
2021/01/10 05:53:50;;;;;;;6.23;3.17;;;-3.00;98.40;;;;;;5045457;28;20052;-73
2021/01/10 05:56:18;;;;;;;8.10;3.17;;;-2.90;98.20;;;;;;5045348;28;20053;-72
2021/01/10 05:58:45;;;;;;;7.70;2.80;;;-2.80;98.50;;;;;;5031473;28;20068;-73
2021/01/10 06:01:12;;;;;;;5.77;2.90;;;-2.80;98.50;;;;;;5042243;28;20029;-73
2021/01/10 06:03:39;;;;;;;8.33;3.40;;;-2.80;97.50;;;;;;5044072;28;20116;-73
2021/01/10 06:06:05;;;;;;;6.97;2.97;;;-2.70;97.70;;;;;;5045021;28;20032;-73
2021/01/10 06:08:35;;;;;;;5.50;2.37;;;-2.80;97.90;;;;;;5045695;28;20033;-73
2021/01/10 06:11:17;;;;;;;5.80;2.90;;;-2.80;97.00;;;;;;5044999;28;20108;-73
2021/01/10 06:13:56;;;;;;;7.80;3.43;;;-2.80;96.90;;;;;;5045328;28;20024;-73
2021/01/10 06:16:26;;;;;;;6.57;2.67;;;-2.80;96.70;;;;;;5028325;28;20029;-73
2021/01/10 06:18:54;;;;;;;6.93;2.53;;;-2.80;96.80;;;;;;5043947;28;20029;-73
2021/01/10 06:21:24;;;;;;;4.50;2.23;;;-2.80;96.90;;;;;;5044681;28;20044;-73
2021/01/10 06:23:52;;;;;;;7.57;2.85;;;-2.90;98.60;;;;;;5045004;28;20021;-73
2021/01/10 06:26:20;;;;;;;4.33;2.60;;;-2.80;99.10;;;;;;5054992;28;20029;-73
2021/01/10 06:28:56;;;;;;;7.70;3.47;;;-2.90;99.20;;;;;;5036834;28;20045;-73
2021/01/10 06:31:25;;;;;;;5.10;2.87;;;-2.90;97.80;;;;;;5042384;28;20610;-73
2021/01/10 06:34:19;;;;;;;6.17;2.77;;;-2.80;96.00;;;;;;5041402;28;20033;-73
2021/01/10 06:36:46;;;;;;;4.43;2.53;;;-2.70;96.00;;;;;;5059455;28;20041;-73
2021/01/10 06:39:14;;;;;;;9.60;2.90;;;-2.60;97.40;;;;;;5045948;28;20051;-73
2021/01/10 06:42:05;;;;;;;6.03;2.50;;;-2.70;98.20;;;;;;5044334;28;20071;-73
2021/01/10 06:44:41;;;;;;;5.50;2.43;;;-2.80;97.80;;;;;;5045209;28;20029;-72
2021/01/10 06:47:15;;;;;;;5.53;2.70;;;-2.80;96.20;;;;;;5047573;28;20033;-73
2021/01/10 06:49:41;;;;;;;8.25;3.00;;;-2.80;95.70;;;;;;5030691;28;20033;-73
2021/01/10 06:52:09;;;;;;;8.73;3.97;;;-2.70;95.60;;;;;;5036356;28;20112;-73
2021/01/10 06:54:45;;;;;;;4.60;2.40;;;-2.70;95.10;;;;;;5044413;28;20040;-73
2021/01/10 06:57:12;;;;;;;4.73;2.13;;;-2.70;95.10;;;;;;5041588;28;20033;-73
2021/01/10 07:00:03;;;;;;;6.67;2.47;;;-2.80;94.80;;;;;;5044582;28;20028;-72
2021/01/10 07:02:28;;;;;;;4.80;2.10;;;-2.80;94.70;;;;;;5036449;28;20106;-72
2021/01/10 07:04:56;;;;;;;6.63;2.70;;;-2.80;94.70;;;;;;5048019;28;20029;-73
2021/01/10 07:07:38;;;;;;;4.27;2.07;;;-2.70;94.90;;;;;;5027257;28;20021;-73
2021/01/10 07:10:09;;;;;;;7.23;2.97;;;-2.60;95.00;;;;;;5044915;28;20880;-72
2021/01/10 07:12:35;;;;;;;5.70;2.33;;;-2.60;94.90;;;;;;5043519;28;20057;-73
2021/01/10 07:15:25;;;;;;;6.40;2.47;;;-2.60;94.90;;;;;;5043659;28;20580;-72
2021/01/10 07:18:07;;;;;;;6.40;2.73;;;-2.60;94.80;;;;;;5036477;28;20041;-73
2021/01/10 07:20:39;;;;;;;5.37;2.50;;;-2.50;94.50;;;;;;5031592;28;20028;-73
2021/01/10 07:23:24;;;;;;;8.03;2.67;;;-2.50;94.20;;;;;;5040113;28;20376;-73
2021/01/10 07:25:50;;;;;;;4.95;2.83;;;-2.60;94.70;;;;;;5044234;28;20045;-73
2021/01/10 07:28:33;;;;;;;5.27;2.30;;;-2.60;94.20;;;;;;5040505;28;20871;-73
2021/01/10 07:31:25;;;;;;;5.30;2.37;;;-2.50;94.00;;;;;;5041183;28;20476;-73
2021/01/10 07:34:08;;;;;;;4.83;2.53;;;-2.50;94.20;;;;;;5037358;28;20128;-73
2021/01/10 07:36:52;;;;;;;6.67;2.80;;;-2.40;95.20;;;;;;5029034;28;20064;-72
2021/01/10 07:39:19;;;;;;;7.43;3.33;;;-2.50;95.70;;;;;;5044629;28;20055;-73
2021/01/10 07:41:44;;;;;;;5.90;2.80;;;-2.50;96.20;;;;;;5046041;28;20033;-74
2021/01/10 07:44:10;;;;;;;8.10;3.80;;;-2.50;95.60;;;;;;5048418;28;20089;-74
2021/01/10 07:47:02;;;;;;;6.10;3.27;;;-2.60;95.70;;;;;;5035596;28;20029;-73
2021/01/10 07:49:31;;;;;;;6.27;2.70;;;-2.50;95.70;;;;;;5041893;28;20045;-73
2021/01/10 07:51:57;;;;;;;8.60;2.33;;;-2.40;96.40;;;;;;5036960;28;20040;-73
2021/01/10 07:55:08;;;;;;;5.93;2.13;;;-2.50;95.60;;;;;;5043628;28;20036;-73
2021/01/10 07:57:34;;;;;;;5.67;2.60;;;-2.50;94.80;;;;;;5024513;28;20049;-73
2021/01/10 08:00:07;;;;;;;5.90;2.60;;;-2.40;94.40;;;;;;5039958;28;20493;-73
2021/01/10 08:02:50;;;;;;;4.77;2.40;;;-2.30;94.20;;;;;;5030296;28;20041;-74
2021/01/10 08:05:24;;;;;;;6.87;3.77;;;-2.30;93.80;;;;;;5024277;28;20108;-73
2021/01/10 08:07:58;;;;;;;4.72;2.83;;;-2.30;93.70;;;;;;5019517;28;20048;-73
2021/01/10 08:10:26;;;;;;;5.32;2.50;;;-2.30;93.30;;;;;;5048137;28;20124;-73
2021/01/10 08:12:52;;;;;;;5.70;2.33;;;-2.20;93.50;;;;;;5035916;28;20040;-73
2021/01/10 08:15:18;;;;;;;5.27;2.27;;;-2.20;93.30;;;;;;5029742;28;20025;-73
2021/01/10 08:17:45;;;;;;;8.77;2.50;;;-2.20;93.50;;;;;;5023430;28;20030;-73
2021/01/10 08:20:11;;;;;;;5.97;2.43;;;-2.20;93.60;;;;;;5036569;28;20029;-73
2021/01/10 08:22:38;;;;;;;4.57;1.90;;;-2.10;93.50;;;;;;5042688;28;20040;-73
2021/01/10 08:25:18;;;;;;;5.70;2.70;;;-2.00;93.50;;;;;;5043258;28;20041;-73
2021/01/10 08:27:45;;;;;;;3.57;1.87;;;-2.00;93.50;;;;;;5033455;28;20526;-73
2021/01/10 08:30:12;;;;;;;7.03;2.58;;;-2.00;94.20;;;;;;5041249;28;20094;-73
2021/01/10 08:32:38;;;;;;;7.00;2.67;;;-2.00;93.80;;;;;;5026648;28;20032;-73
2021/01/10 08:35:05;;;;;;;5.25;2.60;;;-1.90;93.30;;;;;;5031682;28;20028;-73
2021/01/10 08:37:30;;;;;;;8.00;3.47;;;-1.80;93.30;;;;;;5032993;28;20090;-73
2021/01/10 08:40:03;;;;;;;4.40;2.17;;;-2.00;92.90;;;;;;5042708;28;20045;-73
2021/01/10 08:42:33;;;;;;;6.30;3.00;;;-2.00;93.60;;;;;;5030931;28;20041;-74
2021/01/10 08:45:21;;;;;;;6.67;2.93;;;-2.00;93.50;;;;;;5022875;28;20396;-74
2021/01/10 08:47:48;;;;;;;6.27;3.03;;;-2.00;93.70;;;;;;5040751;28;20528;-72
2021/01/10 08:50:15;;;;;;;7.22;3.40;;;-2.00;94.30;;;;;;5044142;28;20827;-73
2021/01/10 08:52:57;;;;;;;7.47;2.63;;;-2.10;94.70;;;;;;5042782;28;20025;-73
2021/01/10 08:55:39;;;;;;;7.53;3.53;;;-2.00;94.90;;;;;;5043493;28;20037;-73
2021/01/10 08:58:10;;;;;;;8.20;3.47;;;-2.00;94.90;;;;;;5042681;28;20029;-74
2021/01/10 09:00:41;;;;;;;6.90;3.67;;;-2.00;95.00;;;;;;5041826;28;20041;-73
2021/01/10 09:03:13;;;;;;;7.07;3.33;;;-1.90;94.90;;;;;;5043448;28;20021;-73
2021/01/10 09:05:39;;;;;;;8.55;4.07;;;-1.80;95.10;;;;;;5037262;28;20029;-73
2021/01/10 09:08:11;;;;;;;7.67;4.20;;;-1.80;95.00;;;;;;5042909;28;20379;-73
2021/01/10 09:10:45;;;;;;;6.57;3.60;;;-1.80;95.10;;;;;;5041164;28;20032;-74
2021/01/10 09:13:15;;;;;;;12.35;4.68;;;-2.10;95.70;;;;;;5043102;28;20032;-74
2021/01/10 09:15:45;;;;;;;8.90;4.53;;;-2.10;95.80;;;;;;5052929;28;20145;-76
2021/01/10 09:18:19;;;;;;;10.10;4.93;;;-2.00;95.90;;;;;;5048117;28;20462;-73
2021/01/10 09:20:57;;;;;;;8.20;4.80;;;-1.80;95.90;;;;;;5045036;28;20041;-74
2021/01/10 09:23:24;;;;;;;8.57;4.77;;;-1.70;95.60;;;;;;5023822;28;21044;-74
2021/01/10 09:25:49;;;;;;;44.40;21.45;;;-1.70;95.40;;;;;;5039891;28;20194;-74
2021/01/10 09:28:17;;;;;;;13.40;7.10;;;-1.70;95.60;;;;;;5041702;28;20531;-78
2021/01/10 09:30:53;;;;;;;15.60;5.60;;;-1.60;95.40;;;;;;5041992;28;20051;-76
2021/01/10 09:33:30;;;;;;;8.90;5.13;;;-1.80;95.50;;;;;;5041757;28;20946;-74
2021/01/10 09:35:57;;;;;;;12.00;5.47;;;-1.80;95.50;;;;;;5039316;28;20549;-74
2021/01/10 09:38:29;;;;;;;8.77;4.87;;;-1.80;95.60;;;;;;5037906;28;20064;-73
2021/01/10 09:41:08;;;;;;;8.00;4.13;;;-1.80;95.30;;;;;;5055455;28;20037;-73
2021/01/10 09:43:38;;;;;;;13.25;5.55;;;-1.80;95.30;;;;;;5040954;28;20506;-74
2021/01/10 09:46:37;;;;;;;8.80;4.70;;;-1.50;96.70;;;;;;5042936;28;20036;-73
2021/01/10 09:49:07;;;;;;;16.97;8.23;;;-1.70;94.60;;;;;;5035058;28;20065;-73
2021/01/10 09:51:43;;;;;;;13.97;5.60;;;-1.60;95.20;;;;;;5042902;28;20621;-73
2021/01/10 09:54:20;;;;;;;13.70;6.43;;;-1.60;95.10;;;;;;5042831;28;20097;-73
2021/01/10 09:56:56;;;;;;;10.80;4.70;;;-1.70;95.10;;;;;;5030158;28;20149;-73
2021/01/10 09:59:35;;;;;;;8.83;4.67;;;-1.60;94.80;;;;;;5027846;28;20021;-73
2021/01/10 10:02:11;;;;;;;11.20;5.37;;;-1.60;94.80;;;;;;5035460;28;20044;-73
2021/01/10 10:04:37;;;;;;;9.73;4.93;;;-1.60;95.00;;;;;;5026681;28;20029;-73
2021/01/10 10:07:04;;;;;;;9.27;4.53;;;-1.50;95.30;;;;;;5045257;28;20040;-73
2021/01/10 10:09:52;;;;;;;11.55;5.57;;;-1.40;95.20;;;;;;5046324;28;20025;-73
2021/01/10 10:12:22;;;;;;;10.07;4.57;;;-1.40;94.90;;;;;;5028641;28;20037;-73
2021/01/10 10:14:58;;;;;;;8.37;4.43;;;-1.40;94.90;;;;;;5046382;28;20033;-73
2021/01/10 10:17:30;;;;;;;7.70;3.70;;;-1.30;94.30;;;;;;5046807;28;20120;-73
2021/01/10 10:19:56;;;;;;;8.50;4.27;;;-1.20;94.70;;;;;;5045495;28;20028;-73
2021/01/10 10:22:23;;;;;;;8.37;4.20;;;-1.20;94.50;;;;;;5038454;28;20041;-73
2021/01/10 10:24:50;;;;;;;10.00;4.93;;;-1.20;94.00;;;;;;5044634;28;20091;-73
2021/01/10 10:27:16;;;;;;;48.72;23.02;;;-1.00;94.50;;;;;;5046033;28;20029;-73
2021/01/10 10:29:42;;;;;;;139.13;76.15;;;-0.90;94.70;;;;;;5040640;28;20026;-73
2021/01/10 10:32:08;;;;;;;11.07;7.25;;;-1.00;94.60;;;;;;5025799;28;20083;-72
2021/01/10 10:34:35;;;;;;;5.93;3.20;;;-1.20;93.70;;;;;;5026476;28;20029;-72
2021/01/10 10:37:01;;;;;;;6.47;3.20;;;-1.50;92.40;;;;;;5041498;28;20476;-73
2021/01/10 10:39:26;;;;;;;5.22;2.80;;;-1.30;93.10;;;;;;5026613;28;20030;-73
2021/01/10 10:41:52;;;;;;;7.40;2.90;;;-1.30;92.60;;;;;;5032321;28;20587;-73
2021/01/10 10:44:18;;;;;;;5.70;2.75;;;-1.30;92.90;;;;;;5035322;28;20120;-73
2021/01/10 10:46:45;;;;;;;4.90;2.30;;;-1.40;92.60;;;;;;5039555;28;20514;-73
2021/01/10 10:49:10;;;;;;;7.78;2.90;;;-1.30;92.90;;;;;;5025743;28;20132;-73
2021/01/10 10:51:36;;;;;;;5.38;2.92;;;-1.20;92.70;;;;;;5026309;28;20030;-73
2021/01/10 10:54:01;;;;;;;6.38;3.13;;;-1.40;92.30;;;;;;5025787;28;20510;-73
2021/01/10 10:56:39;;;;;;;6.05;2.58;;;-1.40;92.30;;;;;;5025813;28;20064;-73
2021/01/10 10:59:05;;;;;;;6.90;3.50;;;-1.40;92.10;;;;;;5026095;28;20028;-73
2021/01/10 11:01:38;;;;;;;7.13;3.25;;;-1.20;92.70;;;;;;5025763;28;20030;-73
2021/01/10 11:04:04;;;;;;;76.35;28.75;;;-1.20;92.50;;;;;;5033418;28;20033;-73
2021/01/10 11:06:29;;;;;;;16.47;7.67;;;-1.20;92.80;;;;;;5045834;28;20359;-73
2021/01/10 11:08:55;;;;;;;10.00;4.90;;;-1.00;92.30;;;;;;5044706;28;20052;-73
2021/01/10 11:11:21;;;;;;;11.02;4.47;;;-1.00;92.30;;;;;;5044603;28;20538;-73
2021/01/10 11:13:46;;;;;;;11.67;5.13;;;-0.90;92.80;;;;;;5031484;28;20853;-73
2021/01/10 11:16:12;;;;;;;6.72;3.80;;;-0.90;92.70;;;;;;5025405;28;20032;-73
2021/01/10 11:18:38;;;;;;;7.43;3.80;;;-1.00;92.70;;;;;;5025228;28;20033;-73
2021/01/10 11:21:04;;;;;;;9.00;3.80;;;-1.40;92.90;;;;;;5032768;28;20061;-73
2021/01/10 11:23:30;;;;;;;10.02;3.80;;;-1.30;92.50;;;;;;5036920;28;20060;-73
2021/01/10 11:25:56;;;;;;;7.63;3.93;;;-1.30;92.40;;;;;;5026703;28;20602;-73
2021/01/10 11:28:21;;;;;;;9.18;3.40;;;-1.20;93.00;;;;;;5044373;28;20570;-73
2021/01/10 11:30:47;;;;;;;8.73;3.37;;;-1.10;93.00;;;;;;5044735;28;20663;-73
2021/01/10 11:33:12;;;;;;;8.77;3.63;;;-1.10;93.20;;;;;;5042903;28;20356;-73
2021/01/10 11:35:39;;;;;;;7.10;3.30;;;-1.20;92.90;;;;;;5024537;28;20029;-73
2021/01/10 11:38:05;;;;;;;7.23;3.40;;;-1.30;92.40;;;;;;5031931;28;20071;-73
2021/01/10 11:40:30;;;;;;;8.70;3.17;;;-1.50;92.80;;;;;;5044469;28;20060;-73
2021/01/10 11:42:56;;;;;;;8.77;3.20;;;-1.40;93.10;;;;;;5027080;28;20623;-72
2021/01/10 11:45:22;;;;;;;7.17;3.90;;;-1.40;92.70;;;;;;5025448;28;20379;-73
2021/01/10 11:47:47;;;;;;;6.40;2.93;;;-1.30;92.00;;;;;;5030959;28;20458;-73
2021/01/10 11:50:13;;;;;;;7.00;3.77;;;-1.10;92.50;;;;;;5041739;28;20033;-72
2021/01/10 11:52:39;;;;;;;9.05;3.20;;;-1.00;91.90;;;;;;5024210;28;20104;-73
2021/01/10 11:55:05;;;;;;;7.78;3.42;;;-0.90;92.20;;;;;;5032961;28;20032;-73
2021/01/10 11:57:31;;;;;;;7.27;3.87;;;-1.00;91.80;;;;;;5043708;28;20037;-73
2021/01/10 11:59:56;;;;;;;6.67;3.33;;;-1.00;92.20;;;;;;5044816;28;20400;-73
2021/01/10 12:02:22;;;;;;;7.23;3.40;;;-1.00;91.50;;;;;;5039834;28;20691;-73
2021/01/10 12:04:47;;;;;;;9.77;4.15;;;-1.00;92.50;;;;;;5044305;28;20620;-73
2021/01/10 12:07:13;;;;;;;7.60;4.03;;;-0.90;93.00;;;;;;5044745;28;20463;-73
2021/01/10 12:09:39;;;;;;;8.23;4.27;;;-0.90;92.40;;;;;;5044542;28;20025;-73
2021/01/10 12:12:05;;;;;;;9.57;3.77;;;-0.80;92.20;;;;;;5032786;28;20804;-73
2021/01/10 12:14:30;;;;;;;11.00;4.88;;;-0.90;92.50;;;;;;5023139;28;20034;-73
2021/01/10 12:16:56;;;;;;;9.85;5.25;;;-0.70;93.00;;;;;;5024237;28;20033;-73
2021/01/10 12:19:23;;;;;;;11.02;5.40;;;-0.60;92.50;;;;;;5042692;28;20380;-73
2021/01/10 12:21:49;;;;;;;9.77;4.70;;;-0.50;92.30;;;;;;5038374;28;20033;-73
2021/01/10 12:24:15;;;;;;;7.72;5.47;;;-0.50;91.80;;;;;;5024139;28;20025;-73
2021/01/10 12:26:40;;;;;;;13.15;7.95;;;-0.40;91.90;;;;;;5031802;28;20510;-73
2021/01/10 12:29:06;;;;;;;9.40;5.82;;;-0.40;91.50;;;;;;5034844;28;20545;-73
2021/01/10 12:31:31;;;;;;;11.70;8.23;;;-0.40;91.90;;;;;;5023912;28;20087;-73
2021/01/10 12:33:57;;;;;;;12.95;8.52;;;-0.30;91.90;;;;;;5023655;28;20075;-73
2021/01/10 12:36:26;;;;;;;7.88;3.78;;;-0.20;91.60;;;;;;5024182;28;20022;-73
2021/01/10 12:38:52;;;;;;;9.98;5.03;;;-0.30;91.80;;;;;;5024272;28;20033;-73
2021/01/10 12:41:18;;;;;;;8.93;4.88;;;-0.40;91.80;;;;;;5033962;28;20994;-73
2021/01/10 12:43:43;;;;;;;6.55;3.78;;;-0.30;91.40;;;;;;5044125;28;20037;-73
2021/01/10 12:46:09;;;;;;;8.55;3.63;;;-0.20;91.50;;;;;;5040370;28;20476;-73
2021/01/10 12:48:35;;;;;;;8.90;4.55;;;-0.20;91.50;;;;;;5043327;28;20048;-73
2021/01/10 12:51:00;;;;;;;7.32;4.00;;;-0.30;91.00;;;;;;5042825;28;20021;-72
2021/01/10 12:53:26;;;;;;;7.75;3.88;;;-0.30;91.80;;;;;;5043831;28;20025;-73
2021/01/10 12:55:52;;;;;;;8.25;4.63;;;-0.30;91.50;;;;;;5038698;28;20025;-72